Time;durP1;ratioP1;P1;durP2;ratioP2;P2;SDS_P1;SDS_P2;PMS_P1;PMS_P2;Temp;Humidity;BMP_temperature;BMP_pressure;BME280_temperature;BME280_humidity;BME280_pressure;Samples;Min_cycle;Max_cycle;Signal;HPM_P1;HPM_P2
2023/05/20 00:01:45;;;;;;;;;;;10.10;69.20;;;;;;4110793;28;19926;-81
2023/05/20 00:04:06;;;;;;;;;;;10.00;69.90;;;;;;4109415;28;19974;-82
2023/05/20 00:06:27;;;;;;;;;;;10.00;70.80;;;;;;4108702;28;19985;-82
2023/05/20 00:08:50;;;;;;;;;;;10.00;70.70;;;;;;4107369;28;20627;-81
2023/05/20 00:11:11;;;;;;;;;;;9.90;71.10;;;;;;4106961;28;19922;-81
2023/05/20 00:13:34;;;;;;;;;;;9.90;71.80;;;;;;4107597;28;19949;-81
2023/05/20 00:15:55;;;;;;;;;;;10.00;71.90;;;;;;4112205;28;19933;-81
2023/05/20 00:18:16;;;;;;;;;;;9.90;71.90;;;;;;4110040;28;20364;-81
2023/05/20 00:20:37;;;;;;;;;;;9.90;72.50;;;;;;4111329;28;19933;-81
2023/05/20 00:22:58;;;;;;;;;;;9.90;73.00;;;;;;4109528;28;19922;-82
2023/05/20 00:25:19;;;;;;;;;;;9.90;73.30;;;;;;4112261;28;20013;-82
2023/05/20 00:27:40;;;;;;;;;;;9.90;73.20;;;;;;4108668;28;19972;-82
2023/05/20 00:30:01;;;;;;;;;;;9.90;73.30;;;;;;4109429;28;20300;-82
2023/05/20 00:32:22;;;;;;;;;;;9.90;73.10;;;;;;4105608;28;19957;-81
2023/05/20 00:34:43;;;;;;;;;;;9.90;73.10;;;;;;4109917;28;20008;-81
2023/05/20 00:37:04;;;;;;;;;;;9.90;73.10;;;;;;4109469;28;19969;-81
2023/05/20 00:39:25;;;;;;;;;;;9.90;73.10;;;;;;4110344;28;19937;-81
2023/05/20 00:41:45;;;;;;;;;;;9.90;73.10;;;;;;4109178;28;19968;-82
2023/05/20 00:44:06;;;;;;;;;;;9.90;73.20;;;;;;4112558;28;19926;-81
2023/05/20 00:46:30;;;;;;;;;;;9.80;73.40;;;;;;4110802;28;19949;-82
2023/05/20 00:48:51;;;;;;;;;;;9.80;73.10;;;;;;4111018;28;19984;-82
2023/05/20 00:51:13;;;;;;;;;;;9.80;73.20;;;;;;4110504;28;20403;-81
2023/05/20 00:53:37;;;;;;;;;;;9.80;73.20;;;;;;4111099;28;20278;-82
2023/05/20 00:55:58;;;;;;;;;;;9.80;73.60;;;;;;4110136;28;19968;-81
2023/05/20 00:58:19;;;;;;;;;;;9.80;73.90;;;;;;4109419;28;19925;-81
2023/05/20 01:00:40;;;;;;;;;;;9.70;73.80;;;;;;4110341;28;19921;-81
2023/05/20 01:03:00;;;;;;;;;;;9.70;74.20;;;;;;4110317;28;19962;-81
2023/05/20 01:05:21;;;;;;;;;;;9.70;74.30;;;;;;4110202;28;19914;-82
2023/05/20 01:07:48;;;;;;;;;;;9.70;74.30;;;;;;4112685;28;19914;-82
2023/05/20 01:10:11;;;;;;;;;;;9.70;74.50;;;;;;4111330;28;20041;-81
2023/05/20 01:12:36;;;;;;;;;;;9.70;74.40;;;;;;4112474;28;19978;-81
2023/05/20 01:14:59;;;;;;;;;;;9.70;74.50;;;;;;4112672;28;19922;-82
2023/05/20 01:17:21;;;;;;;;;;;9.70;74.70;;;;;;4111257;28;19957;-82
2023/05/20 01:19:42;;;;;;;;;;;9.60;74.70;;;;;;4124465;28;19965;-82
2023/05/20 01:22:05;;;;;;;;;;;9.60;75.20;;;;;;4110593;28;19918;-81
2023/05/20 01:24:26;;;;;;;;;;;9.60;75.10;;;;;;4113730;28;19918;-81
2023/05/20 01:26:47;;;;;;;;;;;9.60;74.40;;;;;;4114716;28;19985;-82
2023/05/20 01:29:08;;;;;;;;;;;9.60;74.30;;;;;;4113945;28;19968;-81
2023/05/20 01:31:31;;;;;;;;;;;9.70;73.90;;;;;;4110791;28;19918;-82
2023/05/20 01:33:54;;;;;;;;;;;9.60;73.60;;;;;;4113538;28;19914;-81
2023/05/20 01:36:16;;;;;;;;;;;9.60;73.30;;;;;;4113389;28;19925;-81
2023/05/20 01:38:38;;;;;;;;;;;9.50;73.60;;;;;;4110142;28;19921;-81
2023/05/20 01:41:00;;;;;;;;;;;9.50;73.90;;;;;;4105713;28;20435;-81
2023/05/20 01:43:21;;;;;;;;;;;9.50;73.70;;;;;;4111258;28;19918;-81
2023/05/20 01:45:42;;;;;;;;;;;9.50;73.00;;;;;;4110714;28;20012;-81
2023/05/20 01:48:03;;;;;;;;;;;9.50;73.00;;;;;;4112996;28;20616;-80
2023/05/20 01:50:26;;;;;;;;;;;9.50;72.50;;;;;;4110367;28;19918;-81
2023/05/20 01:52:47;;;;;;;;;;;9.40;72.30;;;;;;4109586;28;19918;-83
2023/05/20 01:55:08;;;;;;;;;;;9.40;72.30;;;;;;4109593;28;20045;-81
2023/05/20 01:57:29;;;;;;;;;;;9.40;72.10;;;;;;4108548;28;19919;-82
2023/05/20 01:59:50;;;;;;;;;;;9.40;72.00;;;;;;4120899;28;19926;-82
2023/05/20 02:02:11;;;;;;;;;;;9.30;71.80;;;;;;4109878;28;19918;-82
2023/05/20 02:04:32;;;;;;;;;;;9.40;71.80;;;;;;4113187;28;19954;-82
2023/05/20 02:06:52;;;;;;;;;;;9.40;71.60;;;;;;4109905;28;19986;-82
2023/05/20 02:09:13;;;;;;;;;;;9.30;71.30;;;;;;4108313;28;19968;-82
2023/05/20 02:11:35;;;;;;;;;;;9.30;71.10;;;;;;4107836;28;19921;-81
2023/05/20 02:13:55;;;;;;;;;;;9.30;70.90;;;;;;4122781;28;19929;-81
2023/05/20 02:16:16;;;;;;;;;;;9.30;70.80;;;;;;4120960;28;19965;-81
2023/05/20 02:18:37;;;;;;;;;;;9.30;70.20;;;;;;4109295;28;20005;-82
2023/05/20 02:21:02;;;;;;;;;;;9.30;69.90;;;;;;4110508;28;19914;-81
2023/05/20 02:23:23;;;;;;;;;;;9.20;69.80;;;;;;4108039;28;19914;-81
2023/05/20 02:25:44;;;;;;;;;;;9.20;69.60;;;;;;4110893;28;19924;-81
2023/05/20 02:28:09;;;;;;;;;;;9.20;69.40;;;;;;4110785;28;20344;-81
2023/05/20 02:30:30;;;;;;;;;;;9.30;69.40;;;;;;4111186;28;19933;-82
2023/05/20 02:32:51;;;;;;;;;;;9.10;69.10;;;;;;4108634;28;20423;-82
2023/05/20 02:35:12;;;;;;;;;;;9.10;68.80;;;;;;4109135;28;19918;-81
2023/05/20 02:37:33;;;;;;;;;;;9.10;68.70;;;;;;4114054;28;20344;-82
2023/05/20 02:39:55;;;;;;;;;;;9.10;68.60;;;;;;4111568;28;20387;-81
2023/05/20 02:42:15;;;;;;;;;;;9.00;68.50;;;;;;4109391;28;20831;-82
2023/05/20 02:44:36;;;;;;;;;;;9.10;68.50;;;;;;4109891;28;19984;-82
2023/05/20 02:46:57;;;;;;;;;;;9.00;68.30;;;;;;4108256;28;19914;-82
2023/05/20 02:49:18;;;;;;;;;;;8.90;68.10;;;;;;4109188;28;19925;-82
2023/05/20 02:51:39;;;;;;;;;;;9.00;68.10;;;;;;4110001;28;20021;-82
2023/05/20 02:54:00;;;;;;;;;;;8.90;68.10;;;;;;4110876;28;20246;-82
2023/05/20 02:56:20;;;;;;;;;;;8.90;68.00;;;;;;4112617;28;19965;-82
2023/05/20 02:58:41;;;;;;;;;;;8.90;67.90;;;;;;4110833;28;19925;-82
2023/05/20 03:01:02;;;;;;;;;;;8.80;67.80;;;;;;4109350;28;20229;-82
2023/05/20 03:03:25;;;;;;;;;;;8.80;67.70;;;;;;4110306;28;19914;-83
2023/05/20 03:05:46;;;;;;;;;;;8.80;67.80;;;;;;4106911;28;21137;-80
2023/05/20 03:08:10;;;;;;;;;;;8.80;67.80;;;;;;4112848;28;19921;-80
2023/05/20 03:10:31;;;;;;;;;;;8.70;67.70;;;;;;4113023;28;19917;-81
2023/05/20 03:12:52;;;;;;;;;;;8.70;67.60;;;;;;4113298;28;19922;-82
2023/05/20 03:15:13;;;;;;;;;;;8.70;67.40;;;;;;4112163;28;19925;-81
2023/05/20 03:17:34;;;;;;;;;;;8.70;67.80;;;;;;4113217;28;19934;-81
2023/05/20 03:19:55;;;;;;;;;;;8.60;67.50;;;;;;4119240;28;19914;-80
2023/05/20 03:22:15;;;;;;;;;;;8.60;67.70;;;;;;4115925;28;19918;-80
2023/05/20 03:24:36;;;;;;;;;;;8.60;67.70;;;;;;4118777;28;19930;-80
2023/05/20 03:26:57;;;;;;;;;;;8.60;67.70;;;;;;4117096;28;19918;-81
2023/05/20 03:29:18;;;;;;;;;;;8.60;67.70;;;;;;4115201;28;19918;-81
2023/05/20 03:31:39;;;;;;;;;;;8.60;68.10;;;;;;4114901;28;19926;-81
2023/05/20 03:33:59;;;;;;;;;;;8.70;68.10;;;;;;4116818;28;19929;-81
2023/05/20 03:36:20;;;;;;;;;;;8.60;68.20;;;;;;4117497;28;19918;-81
2023/05/20 03:38:41;;;;;;;;;;;8.60;68.10;;;;;;4118078;28;19914;-81
2023/05/20 03:41:02;;;;;;;;;;;8.60;68.10;;;;;;4111631;28;19962;-81
2023/05/20 03:43:24;;;;;;;;;;;8.60;68.20;;;;;;4109360;28;19981;-81
2023/05/20 03:45:44;;;;;;;;;;;8.50;68.00;;;;;;4110084;28;19973;-81
2023/05/20 03:48:05;;;;;;;;;;;8.50;68.30;;;;;;4111242;28;19914;-81
2023/05/20 03:50:26;;;;;;;;;;;8.50;68.00;;;;;;4108783;28;19944;-81
2023/05/20 03:52:47;;;;;;;;;;;8.60;69.00;;;;;;4111483;28;20319;-81
2023/05/20 03:55:08;;;;;;;;;;;8.50;69.80;;;;;;4109927;28;19925;-81
2023/05/20 03:57:31;;;;;;;;;;;8.50;70.50;;;;;;4109423;28;19971;-81
2023/05/20 03:59:51;;;;;;;;;;;8.50;71.30;;;;;;4121452;28;19943;-81
2023/05/20 04:02:12;;;;;;;;;;;8.60;71.80;;;;;;4112538;28;20392;-82
2023/05/20 04:04:33;;;;;;;;;;;8.60;72.50;;;;;;4110033;28;19918;-82
2023/05/20 04:06:55;;;;;;;;;;;8.60;73.30;;;;;;4107177;28;19972;-81
2023/05/20 04:09:15;;;;;;;;;;;8.60;73.80;;;;;;4103056;28;19957;-82
2023/05/20 04:11:36;;;;;;;;;;;8.60;74.50;;;;;;4108872;28;21018;-81
2023/05/20 04:13:59;;;;;;;;;;;8.70;74.30;;;;;;4109944;28;19921;-81
2023/05/20 04:16:19;;;;;;;;;;;8.80;75.00;;;;;;4108463;28;19922;-81
2023/05/20 04:18:40;;;;;;;;;;;8.80;75.50;;;;;;4109422;28;19918;-80
2023/05/20 04:21:01;;;;;;;;;;;8.90;76.00;;;;;;4106489;28;19914;-80
2023/05/20 04:23:22;;;;;;;;;;;8.90;76.60;;;;;;4109867;28;19933;-81
2023/05/20 04:25:43;;;;;;;;;;;9.00;76.70;;;;;;4110504;28;19919;-81
2023/05/20 04:28:04;;;;;;;;;;;9.00;76.90;;;;;;4107890;28;19926;-81
2023/05/20 04:30:25;;;;;;;;;;;9.10;77.00;;;;;;4103911;28;19922;-80
2023/05/20 04:32:47;;;;;;;;;;;9.30;76.90;;;;;;4104069;28;20006;-81
2023/05/20 04:35:10;;;;;;;;;;;9.20;76.70;;;;;;4107152;28;19918;-81
2023/05/20 04:37:31;;;;;;;;;;;9.30;76.60;;;;;;4110386;28;20021;-80
2023/05/20 04:39:52;;;;;;;;;;;9.40;77.10;;;;;;4105143;28;19929;-81
2023/05/20 04:42:13;;;;;;;;;;;9.50;78.00;;;;;;4107062;28;19918;-81
2023/05/20 04:44:34;;;;;;;;;;;9.50;76.90;;;;;;4122010;28;19922;-81
2023/05/20 04:47:11;;;;;;;;;;;9.70;77.30;;;;;;4188597;27;2230113;-81
2023/05/20 04:49:33;;;;;;;;;;;9.80;77.80;;;;;;4248690;27;19915;-81
2023/05/20 04:51:54;;;;;;;;;;;9.90;77.40;;;;;;4258955;27;19958;-82
2023/05/20 04:54:19;;;;;;;;;;;9.90;76.70;;;;;;4251222;27;19926;-81
2023/05/20 04:56:40;;;;;;;;;;;9.90;75.90;;;;;;4237513;27;19919;-81
2023/05/20 04:59:00;;;;;;;;;;;10.00;75.50;;;;;;4254703;27;19919;-82
2023/05/20 05:01:21;;;;;;;;;;;10.00;74.60;;;;;;4240315;27;20483;-82
2023/05/20 05:18:55;;;;;;;;;;;10.30;73.80;;;;;;5117829;22;20797;-83
2023/05/20 05:21:16;;;;;;;;;;;10.40;73.40;;;;;;4144216;28;19937;-82
2023/05/20 05:23:37;;;;;;;;;;;10.50;73.40;;;;;;4156814;28;20547;-84
2023/05/20 05:25:58;;;;;;;;;;;10.50;72.60;;;;;;4143696;28;19964;-82
2023/05/20 05:28:18;;;;;;;;;;;10.50;72.50;;;;;;4149068;28;19918;-84
2023/05/20 05:30:39;;;;;;;;;;;10.60;71.80;;;;;;4141545;28;19925;-83
2023/05/20 05:33:00;;;;;;;;;;;10.60;71.50;;;;;;4141070;28;19962;-83
2023/05/20 05:35:21;;;;;;;;;;;10.70;70.80;;;;;;4144829;28;19917;-83
2023/05/20 05:37:42;;;;;;;;;;;10.70;70.30;;;;;;4159876;28;19922;-84
2023/05/20 05:40:03;;;;;;;;;;;10.80;69.40;;;;;;4157826;28;19925;-84
2023/05/20 05:42:24;;;;;;;;;;;10.80;66.20;;;;;;4142063;28;19922;-84
2023/05/20 05:44:45;;;;;;;;;;;10.80;65.30;;;;;;4159316;28;19936;-84
2023/05/20 05:47:05;;;;;;;;;;;10.90;65.50;;;;;;4142348;28;19928;-83
2023/05/20 05:49:26;;;;;;;;;;;11.00;65.50;;;;;;4149110;28;19921;-83
2023/05/20 05:51:47;;;;;;;;;;;11.10;65.20;;;;;;4159788;28;19943;-83
2023/05/20 05:54:08;;;;;;;;;;;11.10;63.90;;;;;;4159103;28;19913;-85
2023/05/20 05:56:29;;;;;;;;;;;11.30;64.00;;;;;;4155359;28;20001;-84
2023/05/20 05:58:50;;;;;;;;;;;11.30;62.00;;;;;;4148866;28;19961;-83
2023/05/20 06:01:11;;;;;;;;;;;11.40;62.50;;;;;;4142939;28;20387;-85
2023/05/20 06:03:31;;;;;;;;;;;11.50;60.80;;;;;;4143917;28;19913;-83
2023/05/20 06:05:52;;;;;;;;;;;11.50;60.20;;;;;;4144727;28;19925;-84
2023/05/20 06:08:13;;;;;;;;;;;11.50;59.20;;;;;;4137470;28;19928;-82
2023/05/20 06:10:34;;;;;;;;;;;11.60;58.70;;;;;;4144987;28;20004;-84
2023/05/20 06:12:55;;;;;;;;;;;11.60;58.70;;;;;;4143736;28;19921;-83
2023/05/20 06:15:16;;;;;;;;;;;11.60;58.70;;;;;;4142657;28;19921;-84
2023/05/20 06:17:37;;;;;;;;;;;11.60;58.70;;;;;;4128371;28;19922;-81
2023/05/20 06:19:58;;;;;;;;;;;11.60;58.80;;;;;;4143642;28;20007;-82
2023/05/20 06:22:19;;;;;;;;;;;11.60;58.20;;;;;;4129450;28;20024;-83
2023/05/20 06:24:40;;;;;;;;;;;11.70;57.60;;;;;;4145085;28;20011;-83
2023/05/20 06:27:01;;;;;;;;;;;11.70;57.40;;;;;;4140757;28;19929;-83
2023/05/20 06:29:22;;;;;;;;;;;11.80;57.60;;;;;;4141980;28;19929;-83
2023/05/20 06:31:43;;;;;;;;;;;11.70;57.40;;;;;;4143010;28;19918;-81
2023/05/20 06:34:04;;;;;;;;;;;11.80;56.70;;;;;;4127065;28;19972;-83
2023/05/20 06:36:26;;;;;;;;;;;11.90;56.00;;;;;;4130670;28;20004;-83
2023/05/20 06:38:46;;;;;;;;;;;12.00;56.30;;;;;;4141103;28;20560;-83
2023/05/20 06:41:07;;;;;;;;;;;12.10;56.80;;;;;;4142209;28;19918;-83
2023/05/20 06:43:28;;;;;;;;;;;12.20;55.60;;;;;;4140685;28;20048;-83
2023/05/20 06:45:49;;;;;;;;;;;12.30;56.00;;;;;;4127801;28;19977;-84
2023/05/20 06:48:10;;;;;;;;;;;12.50;55.60;;;;;;4146254;28;19921;-83
2023/05/20 06:50:31;;;;;;;;;;;12.50;52.30;;;;;;4132361;28;20387;-83
2023/05/20 06:52:52;;;;;;;;;;;12.50;52.10;;;;;;4142513;28;19918;-83
2023/05/20 06:55:13;;;;;;;;;;;12.70;52.70;;;;;;4145033;28;19928;-83
2023/05/20 06:57:34;;;;;;;;;;;12.70;51.80;;;;;;4129824;28;19917;-83
2023/05/20 06:59:54;;;;;;;;;;;12.70;51.70;;;;;;4141928;28;20503;-83
2023/05/20 07:02:15;;;;;;;;;;;12.90;52.80;;;;;;4136433;28;19917;-84
2023/05/20 07:04:36;;;;;;;;;;;12.90;52.50;;;;;;4143799;28;19969;-83
2023/05/20 07:06:57;;;;;;;;;;;13.00;51.80;;;;;;4146182;28;19921;-83
2023/05/20 07:09:18;;;;;;;;;;;13.10;52.70;;;;;;4144034;28;19918;-83
2023/05/20 07:11:38;;;;;;;;;;;13.20;52.60;;;;;;4144391;28;20430;-83
2023/05/20 07:14:02;;;;;;;;;;;13.30;52.40;;;;;;4141356;28;20745;-83
2023/05/20 07:16:23;;;;;;;;;;;13.30;53.20;;;;;;4132794;28;19922;-82
2023/05/20 07:18:44;;;;;;;;;;;13.40;52.50;;;;;;4142986;28;19971;-84
2023/05/20 07:21:04;;;;;;;;;;;13.40;52.50;;;;;;4143150;28;19925;-82
2023/05/20 07:23:25;;;;;;;;;;;13.40;53.40;;;;;;4143448;28;20123;-83
2023/05/20 07:25:46;;;;;;;;;;;13.50;53.50;;;;;;4140706;28;20377;-83
2023/05/20 07:28:07;;;;;;;;;;;13.50;53.20;;;;;;4143763;28;20302;-82
2023/05/20 07:30:28;;;;;;;;;;;13.50;53.90;;;;;;4139968;28;19913;-83
2023/05/20 07:32:49;;;;;;;;;;;13.60;53.60;;;;;;4143926;28;19924;-82
2023/05/20 07:35:09;;;;;;;;;;;13.60;54.30;;;;;;4129706;28;19922;-84
2023/05/20 07:37:38;;;;;;;;;;;13.60;53.40;;;;;;4149770;28;19929;-83
2023/05/20 07:39:59;;;;;;;;;;;13.70;53.60;;;;;;4141828;28;19918;-83
2023/05/20 07:42:20;;;;;;;;;;;13.70;53.90;;;;;;4145340;28;19921;-92
2023/05/20 07:44:41;;;;;;;;;;;13.70;54.30;;;;;;4130557;28;19918;-83
2023/05/20 07:47:01;;;;;;;;;;;13.80;55.20;;;;;;4142888;28;20022;-83
2023/05/20 07:53:43;;;;;;;;;;;13.80;54.80;;;;;;4870316;22;20495;-82
2023/05/20 07:56:04;;;;;;;;;;;13.80;54.80;;;;;;4141019;28;19936;-82
2023/05/20 07:58:26;;;;;;;;;;;13.90;55.30;;;;;;4146778;28;20325;-84
2023/05/20 08:00:47;;;;;;;;;;;14.00;55.00;;;;;;4146356;28;19918;-83
2023/05/20 08:03:08;;;;;;;;;;;13.90;54.60;;;;;;4157525;28;20006;-83
2023/05/20 08:05:28;;;;;;;;;;;13.90;54.80;;;;;;4141119;28;19913;-82
2023/05/20 08:07:49;;;;;;;;;;;14.00;55.20;;;;;;4143598;28;20457;-84
2023/05/20 08:10:10;;;;;;;;;;;14.10;55.60;;;;;;4143708;28;19928;-83
2023/05/20 08:12:31;;;;;;;;;;;14.10;55.70;;;;;;4136497;28;19965;-85
2023/05/20 08:14:56;;;;;;;;;;;14.10;55.00;;;;;;4147536;28;19913;-81
2023/05/20 08:17:16;;;;;;;;;;;14.20;55.60;;;;;;4146549;28;19963;-83
2023/05/20 08:19:37;;;;;;;;;;;14.30;55.30;;;;;;4132405;28;20121;-81
2023/05/20 08:21:58;;;;;;;;;;;14.30;54.70;;;;;;4142865;28;19932;-82
2023/05/20 08:24:19;;;;;;;;;;;14.20;55.20;;;;;;4145506;28;19917;-82
2023/05/20 08:26:40;;;;;;;;;;;14.20;56.20;;;;;;4142858;28;20000;-81
2023/05/20 08:29:00;;;;;;;;;;;14.10;55.90;;;;;;4141083;28;19936;-81
2023/05/20 08:31:21;;;;;;;;;;;14.40;56.80;;;;;;4131641;28;20323;-82
2023/05/20 08:33:42;;;;;;;;;;;14.40;57.40;;;;;;4127466;28;19913;-83
2023/05/20 08:36:03;;;;;;;;;;;14.40;56.50;;;;;;4128794;28;19925;-82
2023/05/20 08:38:23;;;;;;;;;;;14.40;57.70;;;;;;4143012;28;19929;-80
2023/05/20 08:40:45;;;;;;;;;;;14.40;57.10;;;;;;4123236;28;19988;-84
2023/05/20 08:43:06;;;;;;;;;;;14.50;57.10;;;;;;4132648;28;19933;-82
2023/05/20 08:45:29;;;;;;;;;;;14.50;57.30;;;;;;4142388;28;20210;-82
2023/05/20 08:47:50;;;;;;;;;;;14.60;57.80;;;;;;4139277;28;19921;-83
2023/05/20 08:50:12;;;;;;;;;;;14.60;58.00;;;;;;4139541;28;19925;-81
2023/05/20 08:52:33;;;;;;;;;;;14.60;57.60;;;;;;4144828;28;19961;-82
2023/05/20 08:54:55;;;;;;;;;;;14.60;57.20;;;;;;4142836;28;20409;-82
2023/05/20 08:57:16;;;;;;;;;;;14.60;57.60;;;;;;4141487;28;19918;-80
2023/05/20 08:59:37;;;;;;;;;;;14.70;58.50;;;;;;4143227;28;19953;-81
2023/05/20 09:01:58;;;;;;;;;;;14.60;57.50;;;;;;4141193;28;19922;-82
2023/05/20 09:04:19;;;;;;;;;;;14.60;57.60;;;;;;4143427;28;19940;-82
2023/05/20 09:06:46;;;;;;;;;;;14.70;58.00;;;;;;4141303;28;19921;-82
2023/05/20 09:09:07;;;;;;;;;;;14.40;57.40;;;;;;4141103;28;19921;-82
2023/05/20 09:11:28;;;;;;;;;;;14.60;58.50;;;;;;4144372;28;19918;-84
2023/05/20 09:13:49;;;;;;;;;;;14.60;58.70;;;;;;4130070;28;19914;-83
2023/05/20 09:16:10;;;;;;;;;;;14.50;58.30;;;;;;4152342;28;19920;-82
2023/05/20 09:18:31;;;;;;;;;;;14.50;58.20;;;;;;4141110;28;20390;-83
2023/05/20 09:20:52;;;;;;;;;;;14.60;58.80;;;;;;4129416;28;19957;-81
2023/05/20 09:23:13;;;;;;;;;;;14.80;59.20;;;;;;4141690;28;19918;-82
2023/05/20 09:25:35;;;;;;;;;;;14.70;59.30;;;;;;4133008;28;19986;-82
2023/05/20 09:27:56;;;;;;;;;;;14.70;58.90;;;;;;4136421;28;19958;-81
2023/05/20 09:30:20;;;;;;;;;;;14.70;58.40;;;;;;4143062;28;20290;-83
2023/05/20 09:32:41;;;;;;;;;;;14.70;58.40;;;;;;4144167;28;19937;-81
2023/05/20 09:35:03;;;;;;;;;;;14.80;58.60;;;;;;4143392;28;19921;-82
2023/05/20 09:37:24;;;;;;;;;;;14.70;58.50;;;;;;4146670;28;19979;-84
2023/05/20 09:39:52;;;;;;;;;;;14.90;58.60;;;;;;4144075;28;20554;-83
2023/05/20 09:42:20;;;;;;;;;;;14.80;58.90;;;;;;4133148;28;19925;-82
2023/05/20 09:44:43;;;;;;;;;;;14.90;58.10;;;;;;4143659;28;20154;-81
2023/05/20 09:47:06;;;;;;;;;;;14.80;57.20;;;;;;4132479;28;19926;-83
2023/05/20 09:49:28;;;;;;;;;;;15.00;58.60;;;;;;4144587;28;19917;-82
2023/05/20 09:51:49;;;;;;;;;;;14.90;57.40;;;;;;4145472;28;20337;-81
2023/05/20 09:54:11;;;;;;;;;;;15.00;57.20;;;;;;4133173;28;19914;-81
2023/05/20 09:56:33;;;;;;;;;;;15.10;57.20;;;;;;4150058;28;19913;-82
2023/05/20 09:58:57;;;;;;;;;;;15.10;57.70;;;;;;4134311;28;19922;-81
2023/05/20 10:01:17;;;;;;;;;;;15.00;57.10;;;;;;4149023;28;19917;-83
2023/05/20 10:03:39;;;;;;;;;;;15.10;57.90;;;;;;4147585;28;20363;-83
2023/05/20 10:06:08;;;;;;;;;;;15.10;57.20;;;;;;4133864;28;19925;-85
2023/05/20 10:08:40;;;;;;;;;;;15.20;57.60;;;;;;4147542;28;19913;-85
2023/05/20 10:11:18;;;;;;;;;;;15.20;57.40;;;;;;4143203;28;19972;-83
2023/05/20 10:13:45;;;;;;;;;;;15.40;57.00;;;;;;4136664;28;19918;-82
2023/05/20 10:16:24;;;;;;;;;;;15.40;56.40;;;;;;4145919;28;19917;-85
2023/05/20 10:18:45;;;;;;;;;;;15.40;56.10;;;;;;4144628;28;19985;-83
2023/05/20 10:21:16;;;;;;;;;;;15.50;56.30;;;;;;4138554;28;19946;-85
2023/05/20 10:23:36;;;;;;;;;;;15.50;55.40;;;;;;4146121;28;19921;-83
2023/05/20 10:25:57;;;;;;;;;;;15.50;56.00;;;;;;4132639;28;19922;-85
2023/05/20 10:28:28;;;;;;;;;;;15.50;56.10;;;;;;4147122;28;20406;-83
2023/05/20 10:30:49;;;;;;;;;;;15.60;56.40;;;;;;4136549;28;19997;-85
2023/05/20 10:33:15;;;;;;;;;;;15.50;55.80;;;;;;4145055;28;20401;-83
2023/05/20 10:35:45;;;;;;;;;;;15.50;54.50;;;;;;4150183;28;19918;-83
2023/05/20 10:38:08;;;;;;;;;;;15.60;56.20;;;;;;4145537;28;19941;-82
2023/05/20 10:40:29;;;;;;;;;;;15.60;55.10;;;;;;4145584;28;20523;-82
2023/05/20 10:42:50;;;;;;;;;;;15.50;54.70;;;;;;4148715;28;19923;-81
2023/05/20 10:45:11;;;;;;;;;;;15.50;55.10;;;;;;4138093;28;19914;-83
2023/05/20 10:47:32;;;;;;;;;;;15.50;54.30;;;;;;4137866;28;19965;-82
2023/05/20 10:49:53;;;;;;;;;;;15.40;54.70;;;;;;4146866;28;19980;-81
2023/05/20 10:52:15;;;;;;;;;;;15.50;54.60;;;;;;4148745;28;19917;-83
2023/05/20 10:54:42;;;;;;;;;;;15.50;54.70;;;;;;4145011;28;19941;-82
2023/05/20 10:57:08;;;;;;;;;;;15.40;54.30;;;;;;4132786;28;19991;-82
2023/05/20 10:59:28;;;;;;;;;;;15.50;55.80;;;;;;4134974;28;19984;-81
2023/05/20 11:01:49;;;;;;;;;;;15.50;54.90;;;;;;4144094;28;20114;-82
2023/05/20 11:04:12;;;;;;;;;;;15.40;55.30;;;;;;4145952;28;19917;-82
2023/05/20 11:06:33;;;;;;;;;;;15.40;55.10;;;;;;4132379;28;19932;-83
2023/05/20 11:08:54;;;;;;;;;;;15.30;54.80;;;;;;4147571;28;19969;-81
2023/05/20 11:11:15;;;;;;;;;;;15.40;55.10;;;;;;4146065;28;20000;-82
2023/05/20 11:13:36;;;;;;;;;;;15.40;55.10;;;;;;4148375;28;20060;-83
2023/05/20 11:15:58;;;;;;;;;;;15.50;55.20;;;;;;4147264;28;20087;-84
2023/05/20 11:18:18;;;;;;;;;;;15.50;55.30;;;;;;4150578;28;19925;-81
2023/05/20 11:20:39;;;;;;;;;;;15.50;55.70;;;;;;4138887;28;19913;-81
2023/05/20 11:23:01;;;;;;;;;;;15.60;55.70;;;;;;4150508;28;19917;-81
2023/05/20 11:25:22;;;;;;;;;;;15.60;55.90;;;;;;4138988;28;19913;-83
2023/05/20 11:27:44;;;;;;;;;;;15.70;55.30;;;;;;4136412;28;19953;-83
2023/05/20 11:30:05;;;;;;;;;;;15.70;55.60;;;;;;4137714;28;19917;-82
2023/05/20 11:32:26;;;;;;;;;;;15.60;55.80;;;;;;4148279;28;19925;-83
2023/05/20 11:34:50;;;;;;;;;;;15.70;56.00;;;;;;4148803;28;19961;-83
2023/05/20 11:37:10;;;;;;;;;;;15.80;56.00;;;;;;4151639;28;19913;-83
2023/05/20 11:39:31;;;;;;;;;;;15.70;56.00;;;;;;4133744;28;19918;-84
2023/05/20 11:41:52;;;;;;;;;;;15.70;56.00;;;;;;4149770;28;19936;-83
2023/05/20 11:44:16;;;;;;;;;;;15.70;55.60;;;;;;4145643;28;19918;-84
2023/05/20 11:46:41;;;;;;;;;;;15.70;55.00;;;;;;4148921;28;20298;-86
2023/05/20 11:49:01;;;;;;;;;;;15.60;55.80;;;;;;4136922;28;19964;-85
2023/05/20 11:51:26;;;;;;;;;;;15.70;55.60;;;;;;4145484;28;20003;-83
2023/05/20 11:53:47;;;;;;;;;;;15.70;55.30;;;;;;4151074;28;19918;-83
2023/05/20 11:56:08;;;;;;;;;;;15.70;54.80;;;;;;4144954;28;20128;-83
2023/05/20 11:58:30;;;;;;;;;;;15.80;55.40;;;;;;4138993;28;19914;-81
2023/05/20 12:00:51;;;;;;;;;;;15.70;55.00;;;;;;4143159;28;19937;-83
2023/05/20 12:03:12;;;;;;;;;;;15.70;55.40;;;;;;4146329;28;19924;-84
2023/05/20 12:05:32;;;;;;;;;;;15.80;55.00;;;;;;4150242;28;19952;-81
2023/05/20 12:07:53;;;;;;;;;;;15.80;54.20;;;;;;4148802;28;19914;-82
2023/05/20 12:10:14;;;;;;;;;;;15.80;54.50;;;;;;4134266;28;19996;-82
2023/05/20 12:12:35;;;;;;;;;;;15.80;53.40;;;;;;4134016;28;19984;-83
2023/05/20 12:14:56;;;;;;;;;;;15.80;52.90;;;;;;4144821;28;19993;-83
2023/05/20 12:17:17;;;;;;;;;;;15.70;54.20;;;;;;4149933;28;19944;-83
2023/05/20 12:19:38;;;;;;;;;;;16.00;54.40;;;;;;4146552;28;19914;-82
2023/05/20 12:21:59;;;;;;;;;;;15.90;52.40;;;;;;4137280;28;20418;-84
2023/05/20 12:24:20;;;;;;;;;;;15.90;53.40;;;;;;4149835;28;20005;-84
2023/05/20 12:26:41;;;;;;;;;;;15.90;54.20;;;;;;4144120;28;19941;-82
2023/05/20 12:29:02;;;;;;;;;;;16.00;53.70;;;;;;4143398;28;19940;-82
2023/05/20 12:31:23;;;;;;;;;;;16.00;52.90;;;;;;4151477;28;19936;-82
2023/05/20 12:33:46;;;;;;;;;;;16.00;52.80;;;;;;4160782;28;19925;-86
2023/05/20 12:36:07;;;;;;;;;;;16.00;53.30;;;;;;4149577;28;19910;-86
2023/05/20 12:38:28;;;;;;;;;;;15.90;52.20;;;;;;4166044;28;19906;-85
2023/05/20 12:40:49;;;;;;;;;;;15.80;53.00;;;;;;4156322;28;19906;-85
2023/05/20 12:43:10;;;;;;;;;;;15.80;53.60;;;;;;4156520;28;19906;-84
2023/05/20 12:45:30;;;;;;;;;;;15.80;54.20;;;;;;4148205;28;19918;-81
2023/05/20 12:47:51;;;;;;;;;;;15.80;53.90;;;;;;4140433;28;19917;-85
2023/05/20 12:50:12;;;;;;;;;;;15.80;53.90;;;;;;4157383;28;19917;-84
2023/05/20 12:52:33;;;;;;;;;;;15.80;54.10;;;;;;4152625;28;19913;-85
2023/05/20 12:54:54;;;;;;;;;;;15.80;52.40;;;;;;4138905;28;19929;-83
2023/05/20 12:57:16;;;;;;;;;;;15.80;53.00;;;;;;4153012;28;19918;-83
2023/05/20 12:59:37;;;;;;;;;;;15.70;52.40;;;;;;4140018;28;19942;-85
2023/05/20 13:01:58;;;;;;;;;;;15.80;53.00;;;;;;4148280;28;20398;-82
2023/05/20 13:04:19;;;;;;;;;;;15.80;52.00;;;;;;4139110;28;19922;-83
2023/05/20 13:06:40;;;;;;;;;;;15.90;53.50;;;;;;4138038;28;19917;-83
2023/05/20 13:09:01;;;;;;;;;;;15.80;52.40;;;;;;4155137;28;19922;-84
2023/05/20 13:11:22;;;;;;;;;;;15.90;53.60;;;;;;4154811;28;19940;-84
2023/05/20 13:13:45;;;;;;;;;;;15.90;53.20;;;;;;4154805;28;19973;-83
2023/05/20 13:16:06;;;;;;;;;;;16.00;51.80;;;;;;4155541;28;19920;-87
2023/05/20 13:18:27;;;;;;;;;;;16.00;51.60;;;;;;4140496;28;19913;-83
2023/05/20 13:20:48;;;;;;;;;;;16.00;52.00;;;;;;4153659;28;20414;-82
2023/05/20 13:23:09;;;;;;;;;;;16.00;51.90;;;;;;4151047;28;19924;-82
2023/05/20 13:25:30;;;;;;;;;;;16.00;52.60;;;;;;4151169;28;19914;-83
2023/05/20 13:27:51;;;;;;;;;;;16.00;51.40;;;;;;4153366;28;19921;-84
2023/05/20 13:30:12;;;;;;;;;;;16.00;52.20;;;;;;4152786;28;19953;-85
2023/05/20 13:32:33;;;;;;;;;;;16.00;53.00;;;;;;4149775;28;20000;-86
2023/05/20 13:34:55;;;;;;;;;;;16.00;52.40;;;;;;4152236;28;19897;-82
2023/05/20 13:37:16;;;;;;;;;;;16.10;53.20;;;;;;4148988;28;19914;-83
2023/05/20 13:39:37;;;;;;;;;;;16.10;53.50;;;;;;4151634;28;19917;-84
2023/05/20 13:41:58;;;;;;;;;;;16.10;53.50;;;;;;4153841;28;19925;-82
2023/05/20 13:44:19;;;;;;;;;;;16.10;53.80;;;;;;4148800;28;19917;-83
2023/05/20 13:46:40;;;;;;;;;;;16.30;54.30;;;;;;4153565;28;19921;-83
2023/05/20 13:49:01;;;;;;;;;;;16.20;53.80;;;;;;4152741;28;19948;-82
2023/05/20 13:51:22;;;;;;;;;;;16.20;53.10;;;;;;4148915;28;19918;-83
2023/05/20 13:53:42;;;;;;;;;;;16.20;53.20;;;;;;4153178;28;19925;-83
2023/05/20 13:56:04;;;;;;;;;;;16.30;52.20;;;;;;4151153;28;19925;-82
2023/05/20 13:58:25;;;;;;;;;;;16.20;51.90;;;;;;4139424;28;19902;-83
2023/05/20 14:00:46;;;;;;;;;;;16.20;51.20;;;;;;4152790;28;19918;-84
2023/05/20 14:03:09;;;;;;;;;;;16.20;51.70;;;;;;4141344;28;20028;-83
2023/05/20 14:05:30;;;;;;;;;;;16.20;51.90;;;;;;4152768;28;19917;-82
2023/05/20 14:07:51;;;;;;;;;;;16.20;53.20;;;;;;4152459;28;19918;-82